Time;durP1;ratioP1;P1;durP2;ratioP2;P2;SDS_P1;SDS_P2;PMS_P1;PMS_P2;Temp;Humidity;BMP_temperature;BMP_pressure;BME280_temperature;BME280_humidity;BME280_pressure;Samples;Min_cycle;Max_cycle;Signal;HPM_P1;HPM_P2
2020/12/29 00:01:29;;;;;;;;;;;;;;;;;;5033640;28;855;-70
2020/12/29 00:03:54;;;;;;;;;;;;;;;;;;5034055;28;820;-70
2020/12/29 00:06:19;;;;;;;;;;;;;;;;;;5034107;28;1890;-71
2020/12/29 00:08:44;;;;;;;;;;;;;;;;;;5034316;28;892;-71
2020/12/29 00:11:10;;;;;;;;;;;;;;;;;;5033943;28;900;-71
2020/12/29 00:13:35;;;;;;;;;;;;;;;;;;5034192;28;936;-71
2020/12/29 00:16:01;;;;;;;;;;;;;;;;;;5034228;28;1342;-71
2020/12/29 00:18:27;;;;;;;;;;;;;;;;;;5034225;28;944;-71
2020/12/29 00:20:52;;;;;;;;;;;;;;;;;;5032514;28;1303;-71
2020/12/29 00:23:17;;;;;;;;;;;;;;;;;;5033109;28;1238;-71
2020/12/29 00:25:42;;;;;;;;;;;;;;;;;;5034122;28;1432;-71
2020/12/29 00:28:07;;;;;;;;;;;;;;;;;;5032514;28;1914;-71
2020/12/29 00:30:33;;;;;;;;;;;;;;;;;;5033963;28;881;-71
2020/12/29 00:32:58;;;;;;;;;;;;;;;;;;5034251;28;817;-71
2020/12/29 00:35:23;;;;;;;;;;;;;;;;;;5032718;28;1524;-71
2020/12/29 00:37:48;;;;;;;;;;;;;;;;;;5033258;28;1415;-71
2020/12/29 00:40:14;;;;;;;;;;;;;;;;;;5036157;28;1184;-71
2020/12/29 00:42:39;;;;;;;;;;;;;;;;;;5037723;28;875;-71
2020/12/29 00:45:04;;;;;;;;;;;;;;;;;;5036450;28;1459;-71
2020/12/29 00:47:29;;;;;;;;;;;;;;;;;;5037508;28;1898;-71
2020/12/29 00:49:55;;;;;;;;;;;;;;;;;;5036147;28;912;-70
2020/12/29 00:52:20;;;;;;;;;;;;;;;;;;5036467;28;1426;-71
2020/12/29 00:54:45;;;;;;;;;;;;;;;;;;5035936;28;1440;-71
2020/12/29 00:57:10;;;;;;;;;;;;;;;;;;5036129;28;952;-71
2020/12/29 00:59:36;;;;;;;;;;;;;;;;;;5037184;28;845;-71
2020/12/29 01:02:01;;;;;;;;;;;;;;;;;;5036032;28;1865;-71
2020/12/29 01:04:26;;;;;;;;;;;;;;;;;;5037253;28;1389;-71
2020/12/29 01:06:52;;;;;;;;;;;;;;;;;;5037076;28;1890;-71
2020/12/29 01:09:17;;;;;;;;;;;;;;;;;;5036129;28;1220;-71
2020/12/29 01:11:43;;;;;;;;;;;;;;;;;;5036993;28;892;-71
2020/12/29 01:14:08;;;;;;;;;;;;;;;;;;5035594;28;1767;-71
2020/12/29 01:16:33;;;;;;;;;;;;;;;;;;5037065;28;900;-71
2020/12/29 01:18:59;;;;;;;;;;;;;;;;;;5037037;28;885;-71
2020/12/29 01:21:24;;;;;;;;;;;;;;;;;;5036715;28;806;-71
2020/12/29 01:23:50;;;;;;;;;;;;;;;;;;5036852;28;884;-71
2020/12/29 01:26:22;;;;;;;;;;;;;;;;;;5035345;28;1902;-71
2020/12/29 01:28:47;;;;;;;;;;;;;;;;;;5035449;28;1007;-71
2020/12/29 01:31:12;;;;;;;;;;;;;;;;;;5035250;28;1281;-71
2020/12/29 01:33:38;;;;;;;;;;;;;;;;;;5036673;28;829;-71
2020/12/29 01:36:03;;;;;;;;;;;;;;;;;;5036707;28;1330;-71
2020/12/29 01:38:28;;;;;;;;;;;;;;;;;;5035463;28;1215;-71
2020/12/29 01:40:59;;;;;;;;;;;;;;;;;;5036497;28;882;-71
2020/12/29 01:43:28;;;;;;;;;;;;;;;;;;5035296;28;1300;-71
2020/12/29 01:45:54;;;;;;;;;;;;;;;;;;5036231;28;1306;-71
2020/12/29 01:48:19;;;;;;;;;;;;;;;;;;5035352;28;1967;-71
2020/12/29 01:50:44;;;;;;;;;;;;;;;;;;5035241;28;912;-71
2020/12/29 01:53:09;;;;;;;;;;;;;;;;;;5036290;28;1383;-71
2020/12/29 01:55:35;;;;;;;;;;;;;;;;;;5036305;28;1325;-71
2020/12/29 01:58:00;;;;;;;;;;;;;;;;;;5036266;28;853;-71
2020/12/29 02:00:25;;;;;;;;;;;;;;;;;;5035992;28;927;-72
2020/12/29 02:02:51;;;;;;;;;;;;;;;;;;5036212;28;863;-71
2020/12/29 02:05:16;;;;;;;;;;;;;;;;;;5035368;28;1602;-71
2020/12/29 02:07:42;;;;;;;;;;;;;;;;;;5035806;28;2315;-71
2020/12/29 02:10:07;;;;;;;;;;;;;;;;;;5034702;28;1215;-71
2020/12/29 02:12:34;;;;;;;;;;;;;;;;;;5034694;28;889;-72
2020/12/29 02:14:59;;;;;;;;;;;;;;;;;;5035693;28;1342;-71
2020/12/29 02:17:25;;;;;;;;;;;;;;;;;;5035949;28;813;-71
2020/12/29 02:19:51;;;;;;;;;;;;;;;;;;5035822;28;857;-71
2020/12/29 02:22:20;;;;;;;;;;;;;;;;;;5035842;28;944;-71
2020/12/29 02:24:52;;;;;;;;;;;;;;;;;;5035734;28;1361;-71
2020/12/29 02:27:18;;;;;;;;;;;;;;;;;;5035817;28;1997;-72
2020/12/29 02:29:43;;;;;;;;;;;;;;;;;;5034361;28;1397;-71
2020/12/29 02:32:08;;;;;;;;;;;;;;;;;;5034335;28;1438;-71
2020/12/29 02:34:37;;;;;;;;;;;;;;;;;;5034534;28;1408;-72
2020/12/29 02:37:03;;;;;;;;;;;;;;;;;;5035626;28;864;-71
2020/12/29 02:39:28;;;;;;;;;;;;;;;;;;5034131;28;1223;-71
2020/12/29 02:41:53;;;;;;;;;;;;;;;;;;5035325;28;896;-71
2020/12/29 02:44:19;;;;;;;;;;;;;;;;;;5033879;28;1329;-71
2020/12/29 02:46:48;;;;;;;;;;;;;;;;;;5034242;28;1902;-71
2020/12/29 02:49:13;;;;;;;;;;;;;;;;;;5035414;28;814;-71
2020/12/29 02:51:39;;;;;;;;;;;;;;;;;;5033923;28;1339;-71
2020/12/29 02:54:04;;;;;;;;;;;;;;;;;;5034907;28;907;-71
2020/12/29 02:56:29;;;;;;;;;;;;;;;;;;5035110;28;1412;-71
2020/12/29 02:58:54;;;;;;;;;;;;;;;;;;5035034;28;1179;-71
2020/12/29 03:01:20;;;;;;;;;;;;;;;;;;5034792;28;1050;-71
2020/12/29 03:03:45;;;;;;;;;;;;;;;;;;5035187;28;829;-71
2020/12/29 03:06:10;;;;;;;;;;;;;;;;;;5034692;28;1290;-71
2020/12/29 03:08:35;;;;;;;;;;;;;;;;;;5034883;28;1886;-71
2020/12/29 03:11:00;;;;;;;;;;;;;;;;;;5033879;28;944;-71
2020/12/29 03:13:26;;;;;;;;;;;;;;;;;;5035041;28;897;-71
2020/12/29 03:15:51;;;;;;;;;;;;;;;;;;5033551;28;1367;-71
2020/12/29 03:18:16;;;;;;;;;;;;;;;;;;5034881;28;813;-71
2020/12/29 03:20:41;;;;;;;;;;;;;;;;;;5034545;28;885;-71
2020/12/29 03:23:06;;;;;;;;;;;;;;;;;;5034588;28;947;-71
2020/12/29 03:25:32;;;;;;;;;;;;;;;;;;5033756;28;1353;-71
2020/12/29 03:27:57;;;;;;;;;;;;;;;;;;5034430;28;1961;-71
2020/12/29 03:30:22;;;;;;;;;;;;;;;;;;5034486;28;900;-71
2020/12/29 03:32:47;;;;;;;;;;;;;;;;;;5033757;28;1187;-71
2020/12/29 03:35:13;;;;;;;;;;;;;;;;;;5033573;28;1353;-71
2020/12/29 03:37:38;;;;;;;;;;;;;;;;;;5034347;28;896;-71
2020/12/29 03:40:03;;;;;;;;;;;;;;;;;;5034492;28;924;-71
2020/12/29 03:42:29;;;;;;;;;;;;;;;;;;5034588;28;917;-71
2020/12/29 03:44:54;;;;;;;;;;;;;;;;;;5033128;28;1429;-71
2020/12/29 03:47:19;;;;;;;;;;;;;;;;;;5033166;28;1894;-71
2020/12/29 03:49:45;;;;;;;;;;;;;;;;;;5034162;28;1034;-71
2020/12/29 03:52:10;;;;;;;;;;;;;;;;;;5034483;28;813;-71
2020/12/29 03:54:36;;;;;;;;;;;;;;;;;;5034377;28;1334;-71
2020/12/29 03:57:01;;;;;;;;;;;;;;;;;;5034507;28;868;-71
2020/12/29 03:59:26;;;;;;;;;;;;;;;;;;5033125;28;1303;-71
2020/12/29 04:01:51;;;;;;;;;;;;;;;;;;5033242;28;1451;-71
2020/12/29 04:04:16;;;;;;;;;;;;;;;;;;5032839;28;1464;-71
2020/12/29 04:06:42;;;;;;;;;;;;;;;;;;5034452;28;1973;-71
2020/12/29 04:09:07;;;;;;;;;;;;;;;;;;5033107;28;1210;-71
2020/12/29 04:11:32;;;;;;;;;;;;;;;;;;5034126;28;821;-71
2020/12/29 04:13:57;;;;;;;;;;;;;;;;;;5036426;28;884;-71
2020/12/29 04:16:23;;;;;;;;;;;;;;;;;;5038076;28;1314;-72
2020/12/29 04:18:48;;;;;;;;;;;;;;;;;;5038242;28;900;-70
2020/12/29 04:21:14;;;;;;;;;;;;;;;;;;5036655;28;1196;-71
2020/12/29 04:23:39;;;;;;;;;;;;;;;;;;5037941;28;816;-71
2020/12/29 04:26:04;;;;;;;;;;;;;;;;;;5038207;28;1413;-71
2020/12/29 04:28:29;;;;;;;;;;;;;;;;;;5036478;28;1894;-71
2020/12/29 04:30:55;;;;;;;;;;;;;;;;;;5037897;28;987;-71
2020/12/29 04:33:20;;;;;;;;;;;;;;;;;;5036907;28;818;-71
2020/12/29 04:35:45;;;;;;;;;;;;;;;;;;5037555;28;1416;-71
2020/12/29 04:38:10;;;;;;;;;;;;;;;;;;5036450;28;1361;-71
2020/12/29 04:40:35;;;;;;;;;;;;;;;;;;5037674;28;916;-71
2020/12/29 04:43:01;;;;;;;;;;;;;;;;;;5037473;28;802;-71
2020/12/29 04:45:26;;;;;;;;;;;;;;;;;;5036572;28;1440;-71
2020/12/29 04:47:53;;;;;;;;;;;;;;;;;;5037628;28;1898;-70
2020/12/29 04:50:18;;;;;;;;;;;;;;;;;;5036236;28;1312;-71
2020/12/29 04:52:45;;;;;;;;;;;;;;;;;;5037284;28;950;-71
2020/12/29 04:55:10;;;;;;;;;;;;;;;;;;5037449;28;1334;-71
2020/12/29 04:57:36;;;;;;;;;;;;;;;;;;5036115;28;824;-71
2020/12/29 05:00:05;;;;;;;;;;;;;;;;;;5035967;28;1188;-71
2020/12/29 05:02:30;;;;;;;;;;;;;;;;;;5036138;28;1696;-71
2020/12/29 05:04:55;;;;;;;;;;;;;;;;;;5037133;28;1362;-71
2020/12/29 05:07:20;;;;;;;;;;;;;;;;;;5035759;28;1955;-71
2020/12/29 05:09:46;;;;;;;;;;;;;;;;;;5036805;28;867;-70
2020/12/29 05:12:15;;;;;;;;;;;;;;;;;;5035901;28;1229;-70
2020/12/29 05:14:40;;;;;;;;;;;;;;;;;;5035733;28;1623;-70
2020/12/29 05:17:05;;;;;;;;;;;;;;;;;;5037073;28;821;-71
2020/12/29 05:19:32;;;;;;;;;;;;;;;;;;5037105;28;893;-70
2020/12/29 05:21:58;;;;;;;;;;;;;;;;;;5035546;28;1407;-70
2020/12/29 05:24:23;;;;;;;;;;;;;;;;;;5035685;28;1423;-70
2020/12/29 05:26:58;;;;;;;;;;;;;;;;;;5036915;28;1962;-70
2020/12/29 05:29:24;;;;;;;;;;;;;;;;;;5037002;28;822;-70
2020/12/29 05:31:50;;;;;;;;;;;;;;;;;;5036794;28;856;-71
2020/12/29 05:34:19;;;;;;;;;;;;;;;;;;5035512;28;1388;-71
2020/12/29 05:36:45;;;;;;;;;;;;;;;;;;5036466;28;805;-70
2020/12/29 05:39:10;;;;;;;;;;;;;;;;;;5035407;28;1321;-70
2020/12/29 05:41:37;;;;;;;;;;;;;;;;;;5035482;28;1309;-70
2020/12/29 05:44:03;;;;;;;;;;;;;;;;;;5035070;28;1555;-70
2020/12/29 05:46:29;;;;;;;;;;;;;;;;;;5035094;28;1961;-70
2020/12/29 05:48:55;;;;;;;;;;;;;;;;;;5036550;28;814;-70
2020/12/29 05:51:20;;;;;;;;;;;;;;;;;;5034988;28;1289;-70
2020/12/29 05:53:47;;;;;;;;;;;;;;;;;;5035283;28;814;-70
2020/12/29 05:56:12;;;;;;;;;;;;;;;;;;5036210;28;1338;-70
2020/12/29 05:58:37;;;;;;;;;;;;;;;;;;5036426;28;813;-70
2020/12/29 06:01:02;;;;;;;;;;;;;;;;;;5034816;28;1404;-70
2020/12/29 06:03:28;;;;;;;;;;;;;;;;;;5036080;28;928;-70
2020/12/29 06:05:57;;;;;;;;;;;;;;;;;;5035895;28;1334;-70
2020/12/29 06:08:26;;;;;;;;;;;;;;;;;;5035999;28;1898;-70
2020/12/29 06:10:57;;;;;;;;;;;;;;;;;;5035813;28;841;-70
2020/12/29 06:13:23;;;;;;;;;;;;;;;;;;5035898;28;825;-70
2020/12/29 06:15:54;;;;;;;;;;;;;;;;;;5034765;28;1373;-70
2020/12/29 06:18:31;;;;;;;;;;;;;;;;;;5034880;28;1125;-71
2020/12/29 06:21:02;;;;;;;;;;;;;;;;;;5035680;28;955;-71
2020/12/29 06:23:28;;;;;;;;;;;;;;;;;;5034608;28;1702;-71
2020/12/29 06:25:57;;;;;;;;;;;;;;;;;;5035353;28;1342;-70
2020/12/29 06:28:26;;;;;;;;;;;;;;;;;;5035727;28;1963;-70
2020/12/29 06:30:54;;;;;;;;;;;;;;;;;;5034108;28;1395;-70
2020/12/29 06:33:20;;;;;;;;;;;;;;;;;;5035647;28;834;-70
2020/12/29 06:35:45;;;;;;;;;;;;;;;;;;5035042;28;1436;-70
2020/12/29 06:38:10;;;;;;;;;;;;;;;;;;5034079;28;1208;-71
2020/12/29 06:40:36;;;;;;;;;;;;;;;;;;5034135;28;1208;-70
2020/12/29 06:43:06;;;;;;;;;;;;;;;;;;5035256;28;829;-70
2020/12/29 06:45:32;;;;;;;;;;;;;;;;;;5034057;28;1533;-70
2020/12/29 06:47:57;;;;;;;;;;;;;;;;;;5033992;28;1897;-70
2020/12/29 06:50:24;;;;;;;;;;;;;;;;;;5035149;28;867;-70
2020/12/29 06:52:53;;;;;;;;;;;;;;;;;;5035269;28;848;-70
2020/12/29 06:55:19;;;;;;;;;;;;;;;;;;5033681;28;1404;-70
2020/12/29 06:57:45;;;;;;;;;;;;;;;;;;5035118;28;865;-70
2020/12/29 07:00:10;;;;;;;;;;;;;;;;;;5033755;28;1195;-70
2020/12/29 07:02:36;;;;;;;;;;;;;;;;;;5035342;28;801;-70
2020/12/29 07:05:11;;;;;;;;;;;;;;;;;;5034929;28;1444;-70
2020/12/29 07:07:44;;;;;;;;;;;;;;;;;;5033515;28;1914;-70
2020/12/29 07:10:13;;;;;;;;;;;;;;;;;;5034819;28;834;-70
2020/12/29 07:12:43;;;;;;;;;;;;;;;;;;5034885;28;983;-70
2020/12/29 07:15:08;;;;;;;;;;;;;;;;;;5033669;28;1537;-70
2020/12/29 07:17:33;;;;;;;;;;;;;;;;;;5034730;28;883;-70
2020/12/29 07:19:59;;;;;;;;;;;;;;;;;;5034737;28;892;-70
2020/12/29 07:22:25;;;;;;;;;;;;;;;;;;5034719;28;814;-70
2020/12/29 07:24:50;;;;;;;;;;;;;;;;;;5033673;28;1464;-70
2020/12/29 07:27:19;;;;;;;;;;;;;;;;;;5033497;28;1975;-70
2020/12/29 07:29:58;;;;;;;;;;;;;;;;;;5033326;28;1245;-70
2020/12/29 07:32:23;;;;;;;;;;;;;;;;;;5034671;28;888;-70
2020/12/29 07:34:49;;;;;;;;;;;;;;;;;;5034523;28;1413;-70
2020/12/29 07:37:15;;;;;;;;;;;;;;;;;;5034614;28;876;-70
2020/12/29 07:39:41;;;;;;;;;;;;;;;;;;5034204;28;896;-70
2020/12/29 07:42:06;;;;;;;;;;;;;;;;;;5033272;28;1451;-69
2020/12/29 07:44:31;;;;;;;;;;;;;;;;;;5033550;28;1373;-70
2020/12/29 07:46:57;;;;;;;;;;;;;;;;;;5032917;28;1897;-70
2020/12/29 07:49:22;;;;;;;;;;;;;;;;;;5032566;28;1055;-70
2020/12/29 07:51:47;;;;;;;;;;;;;;;;;;5034245;28;826;-70
2020/12/29 07:54:13;;;;;;;;;;;;;;;;;;5034167;28;1400;-70
2020/12/29 07:56:39;;;;;;;;;;;;;;;;;;5034473;28;884;-70
2020/12/29 07:59:09;;;;;;;;;;;;;;;;;;5034322;28;892;-70
2020/12/29 08:01:46;;;;;;;;;;;;;;;;;;5034270;28;845;-70
2020/12/29 08:04:21;;;;;;;;;;;;;;;;;;5034349;28;1404;-70
2020/12/29 08:06:46;;;;;;;;;;;;;;;;;;5034117;28;1961;-70
2020/12/29 08:09:11;;;;;;;;;;;;;;;;;;5034268;28;896;-69
2020/12/29 08:11:36;;;;;;;;;;;;;;;;;;5034169;28;984;-70
2020/12/29 08:14:01;;;;;;;;;;;;;;;;;;5034345;28;809;-70
2020/12/29 08:16:27;;;;;;;;;;;;;;;;;;5033028;28;1385;-70
2020/12/29 08:18:59;;;;;;;;;;;;;;;;;;5033303;28;1172;-70
2020/12/29 08:21:25;;;;;;;;;;;;;;;;;;5033989;28;1280;-70
2020/12/29 08:23:55;;;;;;;;;;;;;;;;;;5032970;28;1185;-70
2020/12/29 08:26:21;;;;;;;;;;;;;;;;;;5034186;28;1330;-70
2020/12/29 08:28:46;;;;;;;;;;;;;;;;;;5033938;28;1957;-69
2020/12/29 08:31:11;;;;;;;;;;;;;;;;;;5032750;28;1405;-70
2020/12/29 08:33:38;;;;;;;;;;;;;;;;;;5033034;28;1291;-70
2020/12/29 08:36:04;;;;;;;;;;;;;;;;;;5033990;28;1346;-70
2020/12/29 08:38:32;;;;;;;;;;;;;;;;;;5032664;28;1259;-70
2020/12/29 08:41:06;;;;;;;;;;;;;;;;;;5032524;28;926;-70
2020/12/29 08:43:50;;;;;;;;;;;;;;;;;;5032970;28;1261;-69
2020/12/29 08:46:17;;;;;;;;;;;;;;;;;;5032308;28;1368;-69
2020/12/29 08:48:58;;;;;;;;;;;;;;;;;;5033861;28;1965;-70
2020/12/29 08:51:25;;;;;;;;;;;;;;;;;;5033644;28;943;-70
2020/12/29 08:53:51;;;;;;;;;;;;;;;;;;5032640;28;1234;-70
2020/12/29 08:56:22;;;;;;;;;;;;;;;;;;5032486;28;1346;-70
2020/12/29 08:58:48;;;;;;;;;;;;;;;;;;5032768;28;1342;-70
2020/12/29 09:01:28;;;;;;;;;;;;;;;;;;5035921;28;1204;-70
2020/12/29 09:03:53;;;;;;;;;;;;;;;;;;5037493;28;841;-70
2020/12/29 09:06:18;;;;;;;;;;;;;;;;;;5037354;28;1330;-70
2020/12/29 09:08:43;;;;;;;;;;;;;;;;;;5037326;28;1894;-70
2020/12/29 09:11:09;;;;;;;;;;;;;;;;;;5036826;28;887;-70
2020/12/29 09:13:35;;;;;;;;;;;;;;;;;;5037212;28;896;-70
2020/12/29 09:16:10;;;;;;;;;;;;;;;;;;5037010;28;1404;-70
2020/12/29 09:18:39;;;;;;;;;;;;;;;;;;5037007;28;896;-70
2020/12/29 09:21:20;;;;;;;;;;;;;;;;;;5035277;28;893;-70
2020/12/29 09:23:55;;;;;;;;;;;;;;;;;;5035683;28;1220;-69
2020/12/29 09:26:20;;;;;;;;;;;;;;;;;;5036817;28;1318;-70
2020/12/29 09:28:45;;;;;;;;;;;;;;;;;;5036832;28;1961;-69
2020/12/29 09:31:11;;;;;;;;;;;;;;;;;;5035675;28;853;-69
2020/12/29 09:33:37;;;;;;;;;;;;;;;;;;5036828;28;901;-69
2020/12/29 09:36:03;;;;;;;;;;;;;;;;;;5036664;28;1417;-70
2020/12/29 09:38:29;;;;;;;;;;;;;;;;;;5035397;28;1160;-69
2020/12/29 09:40:54;;;;;;;;;;;;;;;;;;5036536;28;924;-70
2020/12/29 09:43:19;;;;;;;;;;;;;;;;;;5036707;28;893;-69
2020/12/29 09:45:45;;;;;;;;;;;;;;;;;;5036331;28;1408;-70
2020/12/29 09:48:14;;;;;;;;;;;;;;;;;;5035311;28;1879;-69
2020/12/29 09:50:39;;;;;;;;;;;;;;;;;;5036337;28;877;-69
2020/12/29 09:53:05;;;;;;;;;;;;;;;;;;5035424;28;1153;-69
2020/12/29 09:55:30;;;;;;;;;;;;;;;;;;5036219;28;1322;-69
2020/12/29 09:57:56;;;;;;;;;;;;;;;;;;5036425;28;817;-69
2020/12/29 10:00:21;;;;;;;;;;;;;;;;;;5036184;28;924;-69
2020/12/29 10:02:46;;;;;;;;;;;;;;;;;;5036246;28;867;-69
2020/12/29 10:05:12;;;;;;;;;;;;;;;;;;5035132;28;1432;-69
2020/12/29 10:07:37;;;;;;;;;;;;;;;;;;5036116;28;1961;-70
2020/12/29 10:10:03;;;;;;;;;;;;;;;;;;5035539;28;1020;-70
2020/12/29 10:12:28;;;;;;;;;;;;;;;;;;5035622;28;857;-70
2020/12/29 10:14:53;;;;;;;;;;;;;;;;;;5034687;28;1385;-69
2020/12/29 10:17:18;;;;;;;;;;;;;;;;;;5035918;28;849;-69
2020/12/29 10:19:44;;;;;;;;;;;;;;;;;;5034454;28;1247;-70
2020/12/29 10:22:09;;;;;;;;;;;;;;;;;;5034566;28;1362;-70
2020/12/29 10:24:34;;;;;;;;;;;;;;;;;;5035781;28;1373;-70
2020/12/29 10:26:59;;;;;;;;;;;;;;;;;;5034297;28;1906;-69
2020/12/29 10:29:25;;;;;;;;;;;;;;;;;;5035826;28;1156;-69
2020/12/29 10:31:51;;;;;;;;;;;;;;;;;;5035681;28;825;-69
2020/12/29 10:34:17;;;;;;;;;;;;;;;;;;5035616;28;1318;-69
2020/12/29 10:36:43;;;;;;;;;;;;;;;;;;5035588;28;818;-69
2020/12/29 10:39:08;;;;;;;;;;;;;;;;;;5034314;28;1236;-69
2020/12/29 10:41:34;;;;;;;;;;;;;;;;;;5035226;28;865;-69
2020/12/29 10:44:00;;;;;;;;;;;;;;;;;;5035577;28;801;-69
2020/12/29 10:46:25;;;;;;;;;;;;;;;;;;5035399;28;1432;-69
2020/12/29 10:48:50;;;;;;;;;;;;;;;;;;5035522;28;1918;-69
2020/12/29 10:51:19;;;;;;;;;;;;;;;;;;5033639;28;1196;-69
2020/12/29 10:53:45;;;;;;;;;;;;;;;;;;5034124;28;1250;-69
2020/12/29 10:56:10;;;;;;;;;;;;;;;;;;5035288;28;1337;-69
2020/12/29 10:58:39;;;;;;;;;;;;;;;;;;5035208;28;923;-68
2020/12/29 11:01:05;;;;;;;;;;;;;;;;;;5035189;28;899;-69
2020/12/29 11:03:30;;;;;;;;;;;;;;;;;;5033290;28;1272;-69
2020/12/29 11:05:55;;;;;;;;;;;;;;;;;;5033934;28;1455;-69
2020/12/29 11:08:20;;;;;;;;;;;;;;;;;;5033766;28;2163;-69
2020/12/29 11:10:48;;;;;;;;;;;;;;;;;;5033654;28;853;-69
2020/12/29 11:13:13;;;;;;;;;;;;;;;;;;5034806;28;892;-69
2020/12/29 11:15:38;;;;;;;;;;;;;;;;;;5034804;28;1302;-69
2020/12/29 11:18:04;;;;;;;;;;;;;;;;;;5034811;28;960;-69
2020/12/29 11:20:29;;;;;;;;;;;;;;;;;;5033668;28;893;-69
2020/12/29 11:22:54;;;;;;;;;;;;;;;;;;5034838;28;887;-69
2020/12/29 11:25:19;;;;;;;;;;;;;;;;;;5034565;28;1498;-69
2020/12/29 11:27:45;;;;;;;;;;;;;;;;;;5033584;28;1973;-70
2020/12/29 11:30:10;;;;;;;;;;;;;;;;;;5033678;28;1331;-69
2020/12/29 11:32:35;;;;;;;;;;;;;;;;;;5034477;28;880;-69
2020/12/29 11:35:00;;;;;;;;;;;;;;;;;;5034682;28;1313;-69
2020/12/29 11:37:25;;;;;;;;;;;;;;;;;;5034714;28;885;-69
2020/12/29 11:39:51;;;;;;;;;;;;;;;;;;5033052;28;1288;-69
2020/12/29 11:42:16;;;;;;;;;;;;;;;;;;5033367;28;849;-69
2020/12/29 11:44:41;;;;;;;;;;;;;;;;;;5033480;28;1353;-69
2020/12/29 11:47:06;;;;;;;;;;;;;;;;;;5033515;28;1897;-69
2020/12/29 11:49:31;;;;;;;;;;;;;;;;;;5034318;28;877;-69
2020/12/29 11:51:57;;;;;;;;;;;;;;;;;;5034156;28;889;-69
2020/12/29 11:54:22;;;;;;;;;;;;;;;;;;5034396;28;1298;-69
2020/12/29 11:56:50;;;;;;;;;;;;;;;;;;5033489;28;1334;-69
2020/12/29 11:59:15;;;;;;;;;;;;;;;;;;5034362;28;829;-69
2020/12/29 12:01:41;;;;;;;;;;;;;;;;;;5033060;28;1765;-69
2020/12/29 12:04:06;;;;;;;;;;;;;;;;;;5034417;28;861;-69
2020/12/29 12:06:35;;;;;;;;;;;;;;;;;;5034170;28;1342;-69
2020/12/29 12:09:00;;;;;;;;;;;;;;;;;;5034355;28;1899;-68
2020/12/29 12:11:28;;;;;;;;;;;;;;;;;;5033913;28;933;-69
2020/12/29 12:13:53;;;;;;;;;;;;;;;;;;5034107;28;908;-68
2020/12/29 12:16:18;;;;;;;;;;;;;;;;;;5032858;28;1452;-68
2020/12/29 12:18:43;;;;;;;;;;;;;;;;;;5032928;28;1386;-68
2020/12/29 12:21:09;;;;;;;;;;;;;;;;;;5032248;28;1385;-68
2020/12/29 12:23:34;;;;;;;;;;;;;;;;;;5032754;28;1928;-68
2020/12/29 12:25:59;;;;;;;;;;;;;;;;;;5032647;28;1362;-69
2020/12/29 12:28:25;;;;;;;;;;;;;;;;;;5034051;28;1960;-69
2020/12/29 12:30:50;;;;;;;;;;;;;;;;;;5032451;28;1218;-69
2020/12/29 12:33:15;;;;;;;;;;;;;;;;;;5034065;28;905;-69
2020/12/29 12:35:41;;;;;;;;;;;;;;;;;;5036234;28;1429;-69
2020/12/29 12:38:06;;;;;;;;;;;;;;;;;;5036539;28;1190;-69
2020/12/29 12:40:32;;;;;;;;;;;;;;;;;;5036445;28;912;-69
2020/12/29 12:42:57;;;;;;;;;;;;;;;;;;5036572;28;1156;-69
2020/12/29 12:45:22;;;;;;;;;;;;;;;;;;5037483;28;1278;-69
2020/12/29 12:47:47;;;;;;;;;;;;;;;;;;5036289;28;1949;-69
2020/12/29 12:50:13;;;;;;;;;;;;;;;;;;5037340;28;991;-69
2020/12/29 12:52:38;;;;;;;;;;;;;;;;;;5037638;28;887;-69
2020/12/29 12:55:03;;;;;;;;;;;;;;;;;;5035959;28;1614;-69
2020/12/29 12:57:29;;;;;;;;;;;;;;;;;;5036301;28;1265;-69
2020/12/29 12:59:54;;;;;;;;;;;;;;;;;;5035755;28;1207;-69
2020/12/29 13:02:19;;;;;;;;;;;;;;;;;;5036248;28;1481;-69
2020/12/29 13:04:44;;;;;;;;;;;;;;;;;;5037543;28;1322;-69
2020/12/29 13:07:09;;;;;;;;;;;;;;;;;;5037224;28;1894;-69
2020/12/29 13:09:35;;;;;;;;;;;;;;;;;;5035862;28;1279;-69
2020/12/29 13:12:00;;;;;;;;;;;;;;;;;;5035907;28;1335;-69
2020/12/29 13:14:25;;;;;;;;;;;;;;;;;;5036988;28;1341;-68
2020/12/29 13:16:50;;;;;;;;;;;;;;;;;;5035611;28;1230;-69
2020/12/29 13:19:16;;;;;;;;;;;;;;;;;;5035612;28;1279;-68
2020/12/29 13:21:41;;;;;;;;;;;;;;;;;;5027661;28;857;-69
2020/12/29 13:24:06;;;;;;;;;;;;;;;;;;5036885;28;785;-69
2020/12/29 13:26:31;;;;;;;;;;;;;;;;;;5036739;28;1342;-69
2020/12/29 13:28:57;;;;;;;;;;;;;;;;;;5036622;28;1902;-69
2020/12/29 13:31:22;;;;;;;;;;;;;;;;;;5036609;28;810;-69
2020/12/29 13:33:48;;;;;;;;;;;;;;;;;;5035588;28;1216;-69
2020/12/29 13:36:13;;;;;;;;;;;;;;;;;;5035477;28;1337;-69
2020/12/29 13:38:38;;;;;;;;;;;;;;;;;;5035732;28;1215;-69
2020/12/29 13:41:04;;;;;;;;;;;;;;;;;;5035525;28;1325;-68
2020/12/29 13:43:30;;;;;;;;;;;;;;;;;;5036471;28;785;-68
2020/12/29 13:45:56;;;;;;;;;;;;;;;;;;5035161;28;1314;-68
2020/12/29 13:48:21;;;;;;;;;;;;;;;;;;5035315;28;1957;-68
2020/12/29 13:50:47;;;;;;;;;;;;;;;;;;5035073;28;1241;-68
2020/12/29 13:53:13;;;;;;;;;;;;;;;;;;5036455;28;1321;-68
2020/12/29 13:55:38;;;;;;;;;;;;;;;;;;5026848;28;1409;-69
2020/12/29 13:58:03;;;;;;;;;;;;;;;;;;5023552;28;1549;-69
2020/12/29 14:00:28;;;;;;;;;;;;;;;;;;5023469;28;1352;-69
2020/12/29 14:02:54;;;;;;;;;;;;;;;;;;5025565;28;1345;-69
2020/12/29 14:05:19;;;;;;;;;;;;;;;;;;5025896;28;1608;-69
2020/12/29 14:07:44;;;;;;;;;;;;;;;;;;5022792;28;1918;-69
2020/12/29 14:10:09;;;;;;;;;;;;;;;;;;5016239;28;798;-69
2020/12/29 14:12:35;;;;;;;;;;;;;;;;;;5016156;28;853;-69
2020/12/29 14:15:00;;;;;;;;;;;;;;;;;;5014899;28;2498;-69
2020/12/29 14:17:25;;;;;;;;;;;;;;;;;;5014740;28;1425;-69
2020/12/29 14:19:51;;;;;;;;;;;;;;;;;;5015938;28;1261;-69
2020/12/29 14:22:16;;;;;;;;;;;;;;;;;;5015964;28;970;-70
2020/12/29 14:24:41;;;;;;;;;;;;;;;;;;5014710;28;1314;-69
2020/12/29 14:27:07;;;;;;;;;;;;;;;;;;5015713;28;1906;-69
2020/12/29 14:29:32;;;;;;;;;;;;;;;;;;5016062;28;888;-69
2020/12/29 14:31:59;;;;;;;;;;;;;;;;;;5015674;28;817;-69
2020/12/29 14:34:24;;;;;;;;;;;;;;;;;;5015830;28;1440;-69
2020/12/29 14:36:50;;;;;;;;;;;;;;;;;;5021131;28;1608;-69
2020/12/29 14:39:15;;;;;;;;;;;;;;;;;;5023248;28;1485;-69
2020/12/29 14:41:41;;;;;;;;;;;;;;;;;;5019084;28;1594;-69
2020/12/29 14:44:07;;;;;;;;;;;;;;;;;;5023357;28;1534;-69
2020/12/29 14:46:32;;;;;;;;;;;;;;;;;;5024830;28;1404;-69
2020/12/29 14:48:57;;;;;;;;;;;;;;;;;;5022111;28;1890;-69
2020/12/29 14:51:26;;;;;;;;;;;;;;;;;;5023442;28;1609;-69
2020/12/29 14:53:58;;;;;;;;;;;;;;;;;;5023635;28;1578;-69
2020/12/29 14:56:25;;;;;;;;;;;;;;;;;;5024925;28;1551;-69
2020/12/29 14:58:50;;;;;;;;;;;;;;;;;;5024604;28;1573;-69
2020/12/29 15:01:26;;;;;;;;;;;;;;;;;;5022608;28;1475;-69
2020/12/29 15:03:51;;;;;;;;;;;;;;;;;;5023227;28;1596;-69
2020/12/29 15:06:26;;;;;;;;;;;;;;;;;;5025579;28;1471;-69
2020/12/29 15:08:52;;;;;;;;;;;;;;;;;;5022585;28;1886;-69
2020/12/29 15:11:17;;;;;;;;;;;;;;;;;;5024715;28;1701;-69
2020/12/29 15:13:42;;;;;;;;;;;;;;;;;;5022019;28;1633;-69
2020/12/29 15:16:08;;;;;;;;;;;;;;;;;;5022285;28;1641;-69
2020/12/29 15:18:33;;;;;;;;;;;;;;;;;;5024695;28;1577;-69
2020/12/29 15:20:58;;;;;;;;;;;;;;;;;;5022540;28;1803;-69
2020/12/29 15:23:23;;;;;;;;;;;;;;;;;;5024058;28;1344;-70
2020/12/29 15:25:49;;;;;;;;;;;;;;;;;;5023798;28;1590;-69
2020/12/29 15:28:14;;;;;;;;;;;;;;;;;;5022527;28;1967;-69
2020/12/29 15:30:39;;;;;;;;;;;;;;;;;;5024412;28;1611;-69
2020/12/29 15:33:04;;;;;;;;;;;;;;;;;;5023452;28;1460;-69
2020/12/29 15:35:29;;;;;;;;;;;;;;;;;;5022882;28;1424;-69
2020/12/29 15:37:55;;;;;;;;;;;;;;;;;;5024573;28;1452;-69
2020/12/29 15:40:20;;;;;;;;;;;;;;;;;;5022437;28;1583;-69
2020/12/29 15:42:45;;;;;;;;;;;;;;;;;;5022453;28;1800;-69
2020/12/29 15:45:10;;;;;;;;;;;;;;;;;;5023634;28;1434;-69
2020/12/29 15:47:37;;;;;;;;;;;;;;;;;;5024167;28;1957;-69
2020/12/29 15:50:02;;;;;;;;;;;;;;;;;;5034380;28;988;-69
2020/12/29 15:52:28;;;;;;;;;;;;;;;;;;5034444;28;876;-69
2020/12/29 15:54:53;;;;;;;;;;;;;;;;;;5034333;28;1433;-69
2020/12/29 15:57:19;;;;;;;;;;;;;;;;;;5033925;28;809;-69
2020/12/29 15:59:44;;;;;;;;;;;;;;;;;;5034341;28;801;-69
2020/12/29 16:02:09;;;;;;;;;;;;;;;;;;5034412;28;818;-69
2020/12/29 16:04:34;;;;;;;;;;;;;;;;;;5034035;28;1306;-69
2020/12/29 16:07:00;;;;;;;;;;;;;;;;;;5028640;28;1961;-69
2020/12/29 16:09:29;;;;;;;;;;;;;;;;;;5015427;28;1385;-69
2020/12/29 16:11:55;;;;;;;;;;;;;;;;;;5017250;28;1212;-70
2020/12/29 16:14:20;;;;;;;;;;;;;;;;;;5021535;28;1448;-70
2020/12/29 16:16:46;;;;;;;;;;;;;;;;;;5017856;28;1465;-70
2020/12/29 16:19:11;;;;;;;;;;;;;;;;;;5025397;28;1811;-70
2020/12/29 16:21:36;;;;;;;;;;;;;;;;;;5036372;28;912;-70
2020/12/29 16:24:01;;;;;;;;;;;;;;;;;;5038021;28;889;-70
2020/12/29 16:26:26;;;;;;;;;;;;;;;;;;5037446;28;1330;-70
2020/12/29 16:28:52;;;;;;;;;;;;;;;;;;5037874;28;2013;-70
2020/12/29 16:31:18;;;;;;;;;;;;;;;;;;5036771;28;1402;-70
2020/12/29 16:33:43;;;;;;;;;;;;;;;;;;5036969;28;931;-70
2020/12/29 16:36:08;;;;;;;;;;;;;;;;;;5034759;28;1364;-70
2020/12/29 16:38:34;;;;;;;;;;;;;;;;;;5037831;28;789;-70
2020/12/29 16:40:59;;;;;;;;;;;;;;;;;;5036307;28;1311;-70
2020/12/29 16:43:25;;;;;;;;;;;;;;;;;;5036288;28;1193;-70
2020/12/29 16:45:50;;;;;;;;;;;;;;;;;;5037549;28;1322;-70
2020/12/29 16:48:15;;;;;;;;;;;;;;;;;;5037323;28;1910;-70
2020/12/29 16:50:40;;;;;;;;;;;;;;;;;;5037342;28;877;-70
2020/12/29 16:53:06;;;;;;;;;;;;;;;;;;5037488;28;810;-70
2020/12/29 16:55:31;;;;;;;;;;;;;;;;;;5036234;28;1480;-70
2020/12/29 16:57:56;;;;;;;;;;;;;;;;;;5035737;28;1005;-70
2020/12/29 17:00:21;;;;;;;;;;;;;;;;;;5037457;28;948;-69
2020/12/29 17:02:46;;;;;;;;;;;;;;;;;;5037503;28;836;-70